Millinocket, ME (04462)

5:53 PM EST on December 02, 2016 (GMT -0500)
MesoWest | | Change Station

Elev 403 ft 45.64 °N, 68.60 °W | Updated 38 minutes ago

Overcast
Overcast
36 °F
Feels Like 36 °F
N
0
Wind Variable Wind from North
Gusts 0.0 mph

Today
High -- | Low -- °F
--% Chance of Precip.
Yesterday
High -- | Low -- °F
Precip. -- in
Pressure 29.63 in
Visibility 5.0 miles
Clouds Mostly Cloudy 400 ft
Mostly Cloudy 2400 ft
Overcast 3200 ft
Windchill 36 °F
Dew Point 35 °F
Humidity 97%
Rainfall in
Snow Depth Not available.
6:56 AM 3:51 PM
Waxing Crescent, 11% visible
SPECI KMLT 022233Z AUTO 00000KT 5SM BR BKN004 BKN024 OVC032 02/01 A2963 RMK AO2 RAE01 P0000 T00170011
Pressure 29.63 in
Visibility 5.0 miles
Clouds Mostly Cloudy 400 ft
Mostly Cloudy 2400 ft
Overcast 3200 ft
Windchill 36 °F
Dew Point 35 °F
Humidity 97%
Rainfall in
Snow Depth Not available.
6:56 AM 3:51 PM
Waxing Crescent, 11% visible
SPECI KMLT 022233Z AUTO 00000KT 5SM BR BKN004 BKN024 OVC032 02/01 A2963 RMK AO2 RAE01 P0000 T00170011

10-Day Weather Forecast

Almanac

Astronomy

Dec. 02, 2016 Rise Set
Actual Time
Civil Twilight
Nautical Twilight
Astronomical Twilight
Moon
Length of Visible Light
Length of Day
Tomorrow will be .
, % of the Moon is Illuminated

Today's Extremes

State Highs State Lows

Community

WunderPhotos

Upload Photos

1,955,368 photos uploaded!

WunderBlog® & News

Nearby

Air Quality

  Air Quality AQ Index Pollutant
Not available.

Snow Depth

Station Depth Elevation

Earthquake Activity

City Distance Mag. Time & Date
Minimum magnitude displayed is 2.5.

Coastal Water Temperatures

Place Temperature

Stations

Nearby Weather Stations

Station Location Temp. Windchill Dew Point Humidity Wind Precip. Elev Updated Type
                   

Watches & Warnings

There are currently no watches in effect.